createdAt,value
2017-07-08T00:00:22.253Z,74.9
2017-07-08T00:01:22.948Z,74.8
2017-07-08T00:02:23.635Z,74.5
2017-07-08T00:03:24.322Z,74.8
2017-07-08T00:04:24.987Z,74.7
2017-07-08T00:05:25.714Z,74.9
2017-07-08T00:06:26.406Z,74.6
2017-07-08T00:07:27.095Z,74.5
2017-07-08T00:08:27.784Z,74.5
2017-07-08T00:09:28.475Z,74.8
2017-07-08T00:10:29.170Z,74.7
2017-07-08T00:11:30.153Z,74.6
2017-07-08T00:12:30.785Z,74.6
2017-07-08T00:13:31.473Z,75.1
2017-07-08T00:14:32.170Z,75.3
2017-07-08T00:15:32.831Z,75.0
2017-07-08T00:16:33.527Z,75.2
2017-07-08T00:17:34.218Z,75.0
2017-07-08T00:18:34.915Z,74.8
2017-07-08T00:19:35.603Z,74.8
2017-07-08T00:20:36.292Z,75.0
2017-07-08T00:21:36.989Z,74.5
2017-07-08T00:22:37.682Z,75.0
2017-07-08T00:23:38.375Z,75.7
2017-07-08T00:24:39.066Z,76.3
2017-07-08T00:25:39.757Z,75.9
2017-07-08T00:26:40.455Z,76.0
2017-07-08T00:27:41.146Z,76.0
2017-07-08T00:28:41.845Z,76.0
2017-07-08T00:29:42.540Z,76.8
2017-07-08T00:30:43.229Z,76.2
2017-07-08T00:31:43.930Z,75.7
2017-07-08T00:32:44.620Z,75.9
2017-07-08T00:33:45.313Z,75.7
2017-07-08T00:34:46.005Z,75.6
2017-07-08T00:35:46.696Z,75.2
2017-07-08T00:36:47.386Z,75.5
2017-07-08T00:37:48.078Z,75.7
2017-07-08T00:38:48.769Z,75.2
2017-07-08T00:39:49.458Z,75.5
2017-07-08T00:40:50.155Z,75.7
2017-07-08T00:41:50.843Z,76.6
2017-07-08T00:42:51.508Z,75.7
2017-07-08T00:43:52.191Z,76.2
2017-07-08T00:44:52.891Z,76.0
2017-07-08T00:45:53.586Z,75.8
2017-07-08T00:46:54.276Z,76.0
2017-07-08T00:47:54.965Z,76.2
2017-07-08T00:48:55.659Z,76.4
2017-07-08T00:49:56.352Z,76.3
2017-07-08T00:50:57.048Z,75.5
2017-07-08T00:51:57.736Z,75.9
2017-07-08T00:52:58.425Z,75.2
2017-07-08T00:53:59.118Z,76.0
2017-07-08T00:54:59.817Z,76.3
2017-07-08T00:56:00.510Z,76.4
2017-07-08T00:57:01.203Z,76.1
2017-07-08T00:58:01.895Z,76.1
2017-07-08T00:59:02.587Z,76.7
2017-07-08T01:00:03.274Z,76.3
2017-07-08T01:01:03.973Z,76.3
2017-07-08T01:02:04.669Z,76.8
2017-07-08T01:03:05.328Z,76.8
2017-07-08T01:04:06.023Z,76.8
2017-07-08T01:05:06.721Z,76.5
2017-07-08T01:06:07.415Z,76.3
2017-07-08T01:07:08.110Z,76.6
2017-07-08T01:08:08.801Z,76.8
2017-07-08T01:09:09.487Z,76.7
2017-07-08T01:10:10.181Z,76.4
2017-07-08T01:11:10.870Z,76.3
2017-07-08T01:12:11.563Z,76.7
2017-07-08T01:13:12.258Z,76.3
2017-07-08T01:14:12.950Z,76.8
2017-07-08T01:15:13.647Z,76.6
2017-07-08T01:16:14.339Z,76.5
2017-07-08T01:17:15.030Z,76.5
2017-07-08T01:18:15.725Z,76.7
2017-07-08T01:19:16.420Z,76.7
2017-07-08T01:20:17.111Z,76.4
2017-07-08T01:21:17.802Z,76.7
2017-07-08T01:22:18.490Z,76.5
2017-07-08T01:23:19.189Z,76.2
2017-07-08T01:24:19.878Z,76.7
2017-07-08T01:25:20.570Z,76.4
2017-07-08T01:26:21.494Z,76.4
2017-07-08T01:27:22.186Z,76.2
2017-07-08T01:28:22.886Z,76.1
2017-07-08T01:29:23.578Z,76.5
2017-07-08T01:30:24.271Z,76.4
2017-07-08T01:31:24.965Z,76.2
2017-07-08T01:32:25.653Z,76.3
2017-07-08T01:33:26.346Z,76.5
2017-07-08T01:34:27.041Z,76.5
2017-07-08T01:35:27.734Z,76.2
2017-07-08T01:36:28.428Z,76.5
2017-07-08T01:37:29.121Z,77.0
2017-07-08T01:38:29.817Z,77.1
2017-07-08T01:39:30.507Z,77.1
2017-07-08T01:40:31.205Z,77.3
2017-07-08T01:41:31.895Z,77.6
2017-07-08T01:42:32.583Z,77.0
2017-07-08T01:43:33.272Z,76.7
2017-07-08T01:44:33.964Z,76.9
2017-07-08T01:45:34.659Z,77.3
2017-07-08T01:46:35.352Z,77.6
2017-07-08T01:47:36.048Z,77.6
2017-07-08T01:48:36.738Z,77.6
2017-07-08T01:49:37.430Z,77.4
2017-07-08T01:50:38.329Z,77.3
2017-07-08T01:51:39.023Z,77.5
2017-07-08T01:52:39.719Z,77.2
2017-07-08T01:53:40.409Z,77.3
2017-07-08T01:54:41.099Z,77.5
2017-07-08T01:55:41.794Z,77.6
2017-07-08T01:56:42.488Z,77.4
2017-07-08T01:57:43.179Z,77.1
2017-07-08T01:58:43.876Z,77.5
2017-07-08T01:59:44.564Z,77.5
2017-07-08T02:00:45.485Z,78.0
2017-07-08T02:01:46.174Z,77.9
2017-07-08T02:02:46.868Z,77.5
2017-07-08T02:03:47.531Z,77.5
2017-07-08T02:04:48.223Z,77.8
2017-07-08T02:05:48.912Z,77.8
2017-07-08T02:06:49.602Z,77.3
2017-07-08T02:07:50.293Z,77.6
2017-07-08T02:08:50.982Z,76.6
2017-07-08T02:09:51.677Z,76.9
2017-07-08T02:10:52.367Z,76.4
2017-07-08T02:11:53.058Z,77.0
2017-07-08T02:12:53.749Z,77.6
2017-07-08T02:13:54.444Z,77.7
2017-07-08T02:14:55.369Z,78.0
2017-07-08T02:15:56.057Z,77.7
2017-07-08T02:16:56.755Z,78.1
2017-07-08T02:17:57.450Z,77.9
2017-07-08T02:18:58.140Z,78.2
2017-07-08T02:19:58.832Z,77.8
2017-07-08T02:20:59.519Z,78.2
2017-07-08T02:22:00.446Z,78.1
2017-07-08T02:23:01.105Z,78.4
2017-07-08T02:24:01.798Z,79.0
2017-07-08T02:25:02.492Z,78.5
2017-07-08T02:26:03.188Z,78.5
2017-07-08T02:27:03.877Z,79.2
2017-07-08T02:28:04.573Z,79.2
2017-07-08T02:29:05.266Z,79.2
2017-07-08T02:30:05.960Z,79.2
2017-07-08T02:31:06.654Z,79.7
2017-07-08T02:32:07.345Z,79.2
2017-07-08T02:33:08.035Z,79.3
2017-07-08T02:34:08.727Z,79.4
2017-07-08T02:35:09.421Z,79.4
2017-07-08T02:36:10.116Z,79.4
2017-07-08T02:37:10.805Z,79.8
2017-07-08T02:38:11.499Z,79.8
2017-07-08T02:39:12.189Z,79.7
2017-07-08T02:40:12.877Z,79.6
2017-07-08T02:41:13.568Z,79.7
2017-07-08T02:42:14.258Z,79.7
2017-07-08T02:43:14.922Z,79.8
2017-07-08T02:44:15.646Z,79.2
2017-07-08T02:45:16.337Z,79.3
2017-07-08T02:46:17.031Z,79.6
2017-07-08T02:47:17.727Z,79.4
2017-07-08T02:48:18.413Z,79.1
2017-07-08T02:49:19.154Z,79.1
2017-07-08T02:50:19.802Z,79.1
2017-07-08T02:51:20.496Z,79.1
2017-07-08T02:52:21.192Z,79.4
2017-07-08T02:53:21.882Z,79.1
2017-07-08T02:54:22.578Z,79.2
2017-07-08T02:55:23.269Z,78.3
2017-07-08T02:56:23.962Z,78.7
2017-07-08T02:57:24.655Z,79.0
2017-07-08T02:58:25.362Z,79.1
2017-07-08T02:59:26.055Z,79.3
2017-07-08T03:00:26.750Z,79.2
2017-07-08T03:01:27.443Z,79.3
2017-07-08T03:02:28.131Z,78.7
2017-07-08T03:03:28.827Z,78.9
2017-07-08T03:04:29.530Z,79.4
2017-07-08T03:05:30.218Z,79.7
2017-07-08T03:06:30.911Z,79.9
2017-07-08T03:07:31.607Z,79.5
2017-07-08T03:08:32.298Z,79.5
2017-07-08T03:09:32.996Z,79.6
2017-07-08T03:10:33.693Z,79.5
2017-07-08T03:11:34.383Z,79.8
2017-07-08T03:12:35.080Z,79.6
2017-07-08T03:13:35.781Z,79.6
2017-07-08T03:14:36.717Z,79.5
2017-07-08T03:15:37.405Z,79.3
2017-07-08T03:16:38.101Z,79.3
2017-07-08T03:17:38.792Z,79.5
2017-07-08T03:18:39.487Z,79.6
2017-07-08T03:19:40.177Z,79.3
2017-07-08T03:20:40.871Z,79.2
2017-07-08T03:21:41.568Z,78.1
2017-07-08T03:22:42.256Z,79.2
2017-07-08T03:23:42.948Z,79.1
2017-07-08T03:24:43.643Z,78.9
2017-07-08T03:25:44.337Z,79.0
2017-07-08T03:26:45.029Z,78.0
2017-07-08T03:27:45.728Z,78.5
2017-07-08T03:28:46.417Z,79.2
2017-07-08T03:29:47.110Z,78.4
2017-07-08T03:30:47.805Z,78.4
2017-07-08T03:31:48.501Z,78.9
2017-07-08T03:32:49.197Z,79.2
2017-07-08T03:33:49.894Z,79.2
2017-07-08T03:34:50.588Z,79.7
2017-07-08T03:35:51.286Z,79.2
2017-07-08T03:36:51.977Z,79.6
2017-07-08T03:37:52.676Z,79.7
2017-07-08T03:38:53.368Z,79.1
2017-07-08T03:39:54.066Z,79.6
2017-07-08T03:40:54.757Z,79.3
2017-07-08T03:41:55.448Z,78.9
2017-07-08T03:42:56.148Z,79.4
2017-07-08T03:43:56.838Z,79.5
2017-07-08T03:44:57.538Z,79.3
2017-07-08T03:45:58.232Z,79.5
2017-07-08T03:46:58.925Z,79.2
2017-07-08T03:47:59.621Z,79.5
2017-07-08T03:49:00.316Z,79.3
2017-07-08T03:50:01.307Z,79.2
2017-07-08T03:51:01.931Z,79.7
2017-07-08T03:52:02.630Z,79.5
2017-07-08T03:53:03.291Z,79.1
2017-07-08T03:54:03.989Z,78.9
2017-07-08T03:55:04.678Z,78.1
2017-07-08T03:56:05.376Z,78.6
2017-07-08T03:57:06.067Z,78.3
2017-07-08T03:58:06.759Z,78.4
2017-07-08T03:59:07.453Z,78.5
2017-07-08T04:00:08.152Z,79.0
2017-07-08T04:01:08.842Z,79.0
2017-07-08T04:02:09.532Z,78.7
2017-07-08T04:03:10.225Z,78.9
2017-07-08T04:04:10.921Z,78.4
2017-07-08T04:05:11.615Z,79.2
2017-07-08T04:06:12.310Z,79.6
2017-07-08T04:07:13.006Z,79.5
2017-07-08T04:08:13.668Z,79.4
2017-07-08T04:09:14.365Z,80.5
2017-07-08T04:10:15.065Z,80.1
2017-07-08T04:11:15.758Z,80.7
2017-07-08T04:12:16.451Z,80.4
2017-07-08T04:13:17.149Z,80.8
2017-07-08T04:14:17.844Z,80.5
2017-07-08T04:15:18.544Z,80.5
2017-07-08T04:16:19.240Z,80.8
2017-07-08T04:17:19.942Z,80.6
2017-07-08T04:18:20.602Z,80.4
2017-07-08T04:19:21.267Z,80.3
2017-07-08T04:20:21.932Z,80.8
2017-07-08T04:21:22.623Z,80.1
2017-07-08T04:22:23.320Z,80.4
2017-07-08T04:23:24.021Z,80.3
2017-07-08T04:24:24.713Z,79.7
2017-07-08T04:25:25.413Z,79.8
2017-07-08T04:26:26.113Z,80.8
2017-07-08T04:27:26.807Z,81.0
2017-07-08T04:28:27.503Z,80.5
2017-07-08T04:29:28.201Z,80.0
2017-07-08T04:30:28.894Z,80.2
2017-07-08T04:31:29.588Z,80.3
2017-07-08T04:32:30.287Z,79.8
2017-07-08T04:33:30.983Z,79.1
2017-07-08T04:34:31.672Z,79.7
2017-07-08T04:35:32.366Z,79.3
2017-07-08T04:36:33.065Z,80.0
2017-07-08T04:37:33.760Z,79.0
2017-07-08T04:38:34.454Z,80.6
2017-07-08T04:39:35.120Z,79.7
2017-07-08T04:40:35.816Z,80.5
2017-07-08T04:41:36.518Z,80.0
2017-07-08T04:42:37.221Z,78.2
2017-07-08T04:43:37.909Z,79.3
2017-07-08T04:44:38.607Z,78.2
2017-07-08T04:45:39.303Z,78.7
2017-07-08T04:46:39.993Z,78.6
2017-07-08T04:47:40.690Z,79.0
2017-07-08T04:48:41.387Z,78.7
2017-07-08T04:49:42.089Z,78.3
2017-07-08T04:50:42.786Z,79.5
2017-07-08T04:51:43.449Z,79.4
2017-07-08T04:52:44.144Z,78.5
2017-07-08T04:53:44.844Z,78.7
2017-07-08T04:54:45.544Z,78.0
2017-07-08T04:55:46.239Z,78.2
2017-07-08T04:56:46.941Z,78.5
2017-07-08T04:57:47.633Z,77.6
2017-07-08T04:58:48.300Z,78.6
2017-07-08T04:59:48.996Z,77.4
2017-07-08T05:00:49.694Z,77.0
2017-07-08T05:01:50.395Z,76.9
2017-07-08T05:02:51.063Z,77.7
2017-07-08T05:03:51.762Z,76.9
2017-07-08T05:04:52.456Z,77.0
2017-07-08T05:05:53.153Z,76.5
2017-07-08T05:06:53.851Z,76.3
2017-07-08T05:07:54.514Z,77.5
2017-07-08T05:08:55.245Z,77.3
2017-07-08T05:09:55.944Z,76.3
2017-07-08T05:10:56.637Z,75.6
2017-07-08T05:11:57.335Z,75.7
2017-07-08T05:12:58.035Z,76.4
2017-07-08T05:13:58.733Z,76.0
2017-07-08T05:14:59.434Z,75.1
2017-07-08T05:16:00.133Z,75.3
2017-07-08T05:17:00.836Z,75.2
2017-07-08T05:18:01.540Z,75.0
2017-07-08T05:19:02.236Z,74.5
2017-07-08T05:20:02.934Z,75.6
2017-07-08T05:21:03.637Z,75.5
2017-07-08T05:22:04.339Z,76.2
2017-07-08T05:23:05.036Z,76.3
2017-07-08T05:24:05.737Z,75.5
2017-07-08T05:25:06.436Z,76.0
2017-07-08T05:26:07.102Z,76.0
2017-07-08T05:27:07.834Z,76.3
2017-07-08T05:28:08.530Z,76.6
2017-07-08T05:29:09.228Z,76.8
2017-07-08T05:30:09.926Z,76.6
2017-07-08T05:31:10.629Z,76.2
2017-07-08T05:32:11.326Z,76.3
2017-07-08T05:33:11.993Z,76.5
2017-07-08T05:34:12.694Z,76.2
2017-07-08T05:35:13.393Z,75.5
2017-07-08T05:36:14.088Z,76.6
2017-07-08T05:37:14.786Z,75.5
2017-07-08T05:38:15.487Z,75.3
2017-07-08T05:39:16.182Z,75.1
2017-07-08T05:40:16.847Z,74.9
2017-07-08T05:41:17.551Z,74.7
2017-07-08T05:42:18.244Z,73.4
2017-07-08T05:43:18.946Z,74.8
2017-07-08T05:44:19.937Z,74.1
2017-07-08T05:45:20.572Z,74.8
2017-07-08T05:46:21.266Z,75.0
2017-07-08T05:47:21.965Z,74.9
2017-07-08T05:48:22.665Z,74.8
2017-07-08T05:49:23.364Z,74.6
2017-07-08T05:50:24.059Z,73.7
2017-07-08T05:51:24.959Z,73.3
2017-07-08T05:52:25.655Z,73.9
2017-07-08T05:53:26.325Z,73.5
2017-07-08T05:54:27.023Z,73.5
2017-07-08T05:55:27.724Z,73.5
2017-07-08T05:56:28.417Z,72.6
2017-07-08T05:57:29.114Z,74.4
2017-07-08T05:58:29.820Z,73.0
2017-07-08T05:59:30.524Z,73.1
2017-07-08T06:00:31.227Z,73.1
2017-07-08T06:01:31.926Z,73.3
2017-07-08T06:02:32.592Z,72.7
2017-07-08T06:03:33.287Z,72.9
2017-07-08T06:04:33.993Z,73.2
2017-07-08T06:05:34.662Z,72.1
2017-07-08T06:06:35.361Z,71.9
2017-07-08T06:07:36.066Z,72.1
2017-07-08T06:08:36.759Z,73.2
2017-07-08T06:09:37.429Z,72.6
2017-07-08T06:10:38.166Z,72.8
2017-07-08T06:11:38.830Z,72.5
2017-07-08T06:12:39.535Z,72.6
2017-07-08T06:13:40.234Z,72.5
2017-07-08T06:14:40.902Z,73.4
2017-07-08T06:15:41.568Z,72.4
2017-07-08T06:16:42.269Z,72.1
2017-07-08T06:17:42.964Z,72.1
2017-07-08T06:18:43.659Z,73.5
2017-07-08T06:19:44.364Z,72.1
2017-07-08T06:20:45.073Z,72.1
2017-07-08T06:21:45.768Z,72.2
2017-07-08T06:22:46.469Z,73.1
2017-07-08T06:23:47.171Z,72.8
2017-07-08T06:24:47.873Z,73.3
2017-07-08T06:25:48.575Z,72.7
2017-07-08T06:26:49.239Z,73.8
2017-07-08T06:27:49.909Z,73.1
2017-07-08T06:28:50.609Z,73.3
2017-07-08T06:29:51.312Z,72.2
2017-07-08T06:30:52.016Z,73.1
2017-07-08T06:31:52.682Z,72.0
2017-07-08T06:32:53.389Z,73.2
2017-07-08T06:33:54.054Z,72.5
2017-07-08T06:34:54.754Z,72.0
2017-07-08T06:35:55.458Z,72.1
2017-07-08T06:36:56.130Z,72.1
2017-07-08T06:37:56.824Z,72.4
2017-07-08T06:38:57.529Z,72.4
2017-07-08T06:39:58.232Z,71.4
2017-07-08T06:40:58.934Z,72.3
2017-07-08T06:41:59.625Z,71.3
2017-07-08T06:43:00.324Z,70.6
2017-07-08T06:44:00.997Z,71.5
2017-07-08T06:45:01.699Z,70.9
2017-07-08T06:46:02.366Z,70.0
2017-07-08T06:47:03.070Z,69.3
2017-07-08T06:48:03.776Z,69.8
2017-07-08T06:49:04.478Z,68.8
2017-07-08T06:50:05.177Z,68.0
2017-07-08T06:51:05.873Z,68.2
2017-07-08T06:52:06.545Z,68.1
2017-07-08T06:53:07.251Z,67.4
2017-07-08T06:54:07.952Z,68.1
2017-07-08T06:55:08.656Z,68.5
2017-07-08T06:56:09.324Z,68.3
2017-07-08T06:57:10.027Z,68.4
2017-07-08T06:58:10.728Z,67.3
2017-07-08T06:59:11.435Z,67.3
2017-07-08T07:00:12.104Z,67.2
2017-07-08T07:01:12.812Z,66.1
2017-07-08T07:02:13.512Z,66.9
2017-07-08T07:03:14.213Z,66.1
2017-07-08T07:04:14.918Z,65.7
2017-07-08T07:05:15.590Z,66.4
2017-07-08T07:06:16.290Z,66.0
2017-07-08T07:07:16.960Z,65.6
2017-07-08T07:08:17.744Z,67.2
2017-07-08T07:09:18.388Z,66.1
2017-07-08T07:10:19.093Z,67.2
2017-07-08T07:11:19.795Z,67.4
2017-07-08T07:12:20.502Z,66.9
2017-07-08T07:13:21.442Z,67.1
2017-07-08T07:14:22.115Z,67.3
2017-07-08T07:15:22.825Z,66.4
2017-07-08T07:16:23.523Z,66.1
2017-07-08T07:17:24.227Z,65.3
2017-07-08T07:18:24.898Z,63.0
2017-07-08T07:19:25.607Z,62.3
2017-07-08T07:20:26.277Z,63.2
2017-07-08T07:21:26.978Z,62.4
2017-07-08T07:22:27.680Z,61.4
2017-07-08T07:23:28.387Z,61.6
2017-07-08T07:24:29.055Z,62.2
2017-07-08T07:25:29.763Z,62.2
2017-07-08T07:26:30.469Z,61.8
2017-07-08T07:27:31.176Z,62.0
2017-07-08T07:28:31.884Z,61.7
2017-07-08T07:29:32.586Z,62.4
2017-07-08T07:30:33.292Z,61.6
2017-07-08T07:31:33.997Z,61.4
2017-07-08T07:32:34.702Z,62.3
2017-07-08T07:33:35.411Z,62.3
2017-07-08T07:34:36.119Z,62.7
2017-07-08T07:35:36.791Z,62.0
2017-07-08T07:36:37.470Z,61.4
2017-07-08T07:37:38.172Z,61.2
2017-07-08T07:38:38.876Z,61.0
2017-07-08T07:39:39.582Z,62.0
2017-07-08T07:40:40.290Z,62.0
2017-07-08T07:41:40.993Z,60.7
2017-07-08T07:42:41.698Z,61.4
2017-07-08T07:43:42.404Z,60.5
2017-07-08T07:44:43.110Z,62.2
2017-07-08T07:45:44.014Z,63.1
2017-07-08T07:46:44.724Z,61.0
2017-07-08T07:47:45.397Z,61.5
2017-07-08T07:48:46.108Z,60.4
2017-07-08T07:49:46.809Z,60.4
2017-07-08T07:50:47.486Z,59.8
2017-07-08T07:51:48.195Z,60.3
2017-07-08T07:52:48.898Z,59.9
2017-07-08T07:53:49.601Z,60.0
2017-07-08T07:54:50.307Z,58.8
2017-07-08T07:55:50.982Z,59.0
2017-07-08T07:56:51.689Z,59.6
2017-07-08T07:57:52.359Z,58.5
2017-07-08T07:58:53.063Z,58.5
2017-07-08T07:59:53.741Z,59.0
2017-07-08T08:00:54.474Z,58.0
2017-07-08T08:01:55.180Z,57.7
2017-07-08T08:02:55.890Z,59.5
2017-07-08T08:03:56.597Z,59.0
2017-07-08T08:04:57.303Z,58.5
2017-07-08T08:05:58.007Z,57.4
2017-07-08T08:06:58.711Z,57.5
2017-07-08T08:07:59.423Z,57.4
2017-07-08T08:09:00.130Z,56.3
2017-07-08T08:10:00.805Z,55.5
2017-07-08T08:11:01.481Z,54.6
2017-07-08T08:12:02.159Z,53.7
2017-07-08T08:13:02.864Z,53.6
2017-07-08T08:14:03.569Z,55.2
2017-07-08T08:15:04.278Z,53.2
2017-07-08T08:16:04.987Z,52.6
2017-07-08T08:17:05.661Z,52.6
2017-07-08T08:18:06.365Z,55.8
2017-07-08T08:19:07.036Z,55.6
2017-07-08T08:20:07.709Z,55.4
2017-07-08T08:21:08.415Z,54.2
2017-07-08T08:22:09.089Z,53.9
2017-07-08T08:23:09.799Z,52.2
2017-07-08T08:24:10.473Z,51.0
2017-07-08T08:25:11.181Z,52.8
2017-07-08T08:26:11.854Z,53.4
2017-07-08T08:27:12.562Z,52.0
2017-07-08T08:28:13.266Z,52.2
2017-07-08T08:29:13.968Z,51.1
2017-07-08T08:30:14.676Z,51.3
2017-07-08T08:31:15.355Z,51.3
2017-07-08T08:32:16.056Z,50.9
2017-07-08T08:33:16.760Z,50.7
2017-07-08T08:34:17.467Z,52.2
2017-07-08T08:35:18.177Z,51.9
2017-07-08T08:36:18.858Z,50.3
2017-07-08T08:37:19.569Z,49.0
2017-07-08T08:38:20.269Z,51.7
2017-07-08T08:39:20.979Z,51.2
2017-07-08T08:40:21.686Z,50.6
2017-07-08T08:41:22.357Z,51.2
2017-07-08T08:42:23.065Z,49.5
2017-07-08T08:43:23.774Z,49.9
2017-07-08T08:44:24.449Z,51.1
2017-07-08T08:45:25.153Z,52.4
2017-07-08T08:46:25.844Z,49.0
2017-07-08T08:47:26.542Z,48.9
2017-07-08T08:48:27.248Z,49.4
2017-07-08T08:49:27.951Z,46.6
2017-07-08T08:50:28.664Z,47.4
2017-07-08T08:51:29.371Z,48.6
2017-07-08T08:52:30.085Z,47.9
2017-07-08T08:53:30.759Z,48.5
2017-07-08T08:54:31.474Z,46.4
2017-07-08T08:55:32.180Z,47.6
2017-07-08T08:56:32.883Z,48.7
2017-07-08T08:57:33.562Z,47.8
2017-07-08T08:58:34.270Z,47.8
2017-07-08T08:59:34.975Z,47.6
2017-07-08T09:00:35.682Z,47.5
2017-07-08T09:01:36.393Z,47.2
2017-07-08T09:02:37.070Z,46.6
2017-07-08T09:03:37.809Z,46.6
2017-07-08T09:04:38.492Z,47.0
2017-07-08T09:05:39.195Z,47.8
2017-07-08T09:06:39.894Z,47.0
2017-07-08T09:07:40.609Z,45.8
2017-07-08T09:08:41.313Z,45.3
2017-07-08T09:09:42.030Z,45.8
2017-07-08T09:10:42.736Z,45.2
2017-07-08T09:11:43.451Z,42.4
2017-07-08T09:12:44.167Z,40.8
2017-07-08T09:13:44.877Z,40.5
2017-07-08T09:14:45.587Z,39.0
2017-07-08T09:15:46.265Z,39.6
2017-07-08T09:16:46.970Z,40.2
2017-07-08T09:17:47.681Z,40.4
2017-07-08T09:18:48.388Z,40.4
2017-07-08T09:19:49.105Z,39.6
2017-07-08T09:20:49.815Z,40.4
2017-07-08T09:21:50.527Z,41.4
2017-07-08T09:22:51.240Z,42.5
2017-07-08T09:23:52.185Z,39.6
2017-07-08T09:24:52.872Z,38.7
2017-07-08T09:25:53.588Z,37.3
2017-07-08T09:26:54.301Z,38.2
2017-07-08T09:27:55.017Z,38.9
2017-07-08T09:28:55.732Z,38.3
2017-07-08T09:29:56.453Z,37.8
2017-07-08T09:30:57.136Z,36.2
2017-07-08T09:31:57.852Z,35.5
2017-07-08T09:32:58.568Z,35.8
2017-07-08T09:33:59.256Z,36.6
2017-07-08T09:35:00.003Z,35.5
2017-07-08T09:36:00.717Z,36.2
2017-07-08T09:37:01.438Z,34.6
2017-07-08T09:38:02.123Z,33.6
2017-07-08T09:39:02.837Z,34.0
2017-07-08T09:40:03.550Z,35.7
2017-07-08T09:41:04.271Z,37.5
2017-07-08T09:42:04.993Z,35.8
2017-07-08T09:43:05.704Z,33.5
2017-07-08T09:44:06.392Z,32.9
2017-07-08T09:45:07.110Z,31.2
2017-07-08T09:46:07.806Z,30.9
2017-07-08T09:47:08.528Z,30.3
2017-07-08T09:48:09.247Z,30.2
2017-07-08T09:49:09.966Z,30.8
2017-07-08T09:50:10.685Z,30.7
2017-07-08T09:51:11.407Z,29.9
2017-07-08T09:52:12.095Z,30.5
2017-07-08T09:53:12.820Z,30.5
2017-07-08T09:54:13.516Z,30.7
2017-07-08T09:55:14.280Z,30.2
2017-07-08T09:56:14.961Z,30.4
2017-07-08T09:57:15.674Z,30.8
2017-07-08T09:58:16.398Z,32.2
2017-07-08T09:59:17.121Z,33.0
2017-07-08T10:00:17.839Z,33.0
2017-07-08T10:01:18.541Z,31.8
2017-07-08T10:02:19.277Z,32.2
2017-07-08T10:03:20.013Z,30.3
2017-07-08T10:04:20.700Z,30.7
2017-07-08T10:05:21.425Z,28.9
2017-07-08T10:06:22.121Z,32.0
2017-07-08T10:07:22.834Z,34.1
2017-07-08T10:08:23.548Z,34.9
2017-07-08T10:09:24.257Z,33.1
2017-07-08T10:10:24.997Z,33.0
2017-07-08T10:11:25.689Z,31.7
2017-07-08T10:12:26.378Z,31.5
2017-07-08T10:13:27.100Z,32.2
2017-07-08T10:14:27.820Z,31.8
2017-07-08T10:15:28.539Z,33.5
2017-07-08T10:16:29.267Z,31.8
2017-07-08T10:17:29.987Z,29.8
2017-07-08T10:18:30.675Z,29.2
2017-07-08T10:19:31.399Z,28.4
2017-07-08T10:20:32.111Z,28.4
2017-07-08T10:21:32.818Z,29.1
2017-07-08T10:22:33.546Z,28.9
2017-07-08T10:23:34.260Z,29.2
2017-07-08T10:24:34.982Z,30.0
2017-07-08T10:25:35.706Z,29.7
2017-07-08T10:26:36.431Z,30.5
2017-07-08T10:27:37.157Z,29.6
2017-07-08T10:28:37.882Z,28.5
2017-07-08T10:29:38.571Z,27.8
2017-07-08T10:30:39.296Z,27.7
2017-07-08T10:31:40.019Z,27.6
2017-07-08T10:32:40.736Z,28.7
2017-07-08T10:33:41.446Z,29.9
2017-07-08T10:34:42.182Z,28.6
2017-07-08T10:35:42.898Z,27.8
2017-07-08T10:36:43.623Z,28.0
2017-07-08T10:37:44.328Z,27.5
2017-07-08T10:38:45.086Z,27.4
2017-07-08T10:39:45.741Z,26.5
2017-07-08T10:40:46.499Z,28.7
2017-07-08T10:41:47.226Z,30.2
2017-07-08T10:42:47.919Z,30.3
2017-07-08T10:43:48.640Z,32.1
2017-07-08T10:44:49.326Z,33.0
2017-07-08T10:45:50.047Z,32.0
2017-07-08T10:46:50.770Z,32.0
2017-07-08T10:47:51.495Z,31.6
2017-07-08T10:48:52.213Z,30.2
2017-07-08T10:49:52.940Z,28.0
2017-07-08T10:50:53.625Z,26.7
2017-07-08T10:51:54.349Z,25.9
2017-07-08T10:52:55.041Z,27.0
2017-07-08T10:53:55.757Z,26.2
2017-07-08T10:54:56.484Z,26.0
2017-07-08T10:55:57.201Z,24.1
2017-07-08T10:56:58.156Z,26.6
2017-07-08T10:57:58.846Z,25.9
2017-07-08T10:58:59.532Z,27.5
2017-07-08T11:00:00.250Z,26.4
2017-07-08T11:01:00.943Z,25.6
2017-07-08T11:02:01.662Z,27.2
2017-07-08T11:03:02.383Z,26.8
2017-07-08T11:04:03.102Z,25.5
2017-07-08T11:05:03.825Z,26.6
2017-07-08T11:06:04.512Z,27.0
2017-07-08T11:07:05.199Z,25.7
2017-07-08T11:08:05.920Z,25.9
2017-07-08T11:09:06.845Z,25.6
2017-07-08T11:10:07.540Z,24.9
2017-07-08T11:11:08.255Z,26.3
2017-07-08T11:12:08.979Z,25.7
2017-07-08T11:13:09.695Z,24.8
2017-07-08T11:14:10.411Z,26.6
2017-07-08T11:15:11.131Z,23.2
2017-07-08T11:16:11.848Z,23.1
2017-07-08T11:17:12.565Z,24.7
2017-07-08T11:18:13.294Z,23.5
2017-07-08T11:19:14.012Z,22.8
2017-07-08T11:20:14.736Z,22.4
2017-07-08T11:21:15.465Z,22.1
2017-07-08T11:22:16.185Z,22.0
2017-07-08T11:23:16.907Z,22.9
2017-07-08T11:24:17.629Z,21.1
2017-07-08T11:25:18.352Z,21.3
2017-07-08T11:26:19.078Z,23.3
2017-07-08T11:27:19.794Z,23.2
2017-07-08T11:28:20.514Z,23.2
2017-07-08T11:29:21.233Z,23.3
2017-07-08T11:30:21.959Z,23.1
2017-07-08T11:31:22.678Z,24.2
2017-07-08T11:32:23.397Z,21.4
2017-07-08T11:33:24.121Z,21.7
2017-07-08T11:34:24.844Z,23.0
2017-07-08T11:35:25.561Z,23.3
2017-07-08T11:36:26.261Z,25.5
2017-07-08T11:37:26.982Z,25.8
2017-07-08T11:38:27.702Z,26.8
2017-07-08T11:39:28.423Z,24.8
2017-07-08T11:40:29.106Z,24.3
2017-07-08T11:41:29.790Z,22.8
2017-07-08T11:42:30.509Z,22.5
2017-07-08T11:43:31.201Z,23.5
2017-07-08T11:44:31.920Z,23.2
2017-07-08T11:45:32.606Z,25.5
2017-07-08T11:46:33.323Z,24.7
2017-07-08T11:47:34.006Z,25.5
2017-07-08T11:48:34.691Z,26.6
2017-07-08T11:49:35.407Z,26.4
2017-07-08T11:50:36.094Z,26.7
2017-07-08T11:51:36.812Z,25.6
2017-07-08T11:52:37.530Z,27.6
2017-07-08T11:53:38.213Z,24.6
2017-07-08T11:54:38.933Z,22.7
2017-07-08T11:55:39.649Z,25.4
2017-07-08T11:56:40.367Z,25.0
2017-07-08T11:57:41.083Z,26.7
2017-07-08T11:58:41.801Z,25.8
2017-07-08T11:59:42.517Z,26.7
2017-07-08T12:00:43.201Z,29.8
2017-07-08T12:01:43.912Z,29.9
2017-07-08T12:02:44.629Z,28.7
2017-07-08T12:03:45.340Z,29.7
2017-07-08T12:04:46.050Z,27.9
2017-07-08T12:05:46.767Z,26.7
2017-07-08T12:06:47.451Z,25.6
2017-07-08T12:07:48.169Z,25.6
2017-07-08T12:08:48.884Z,27.0
2017-07-08T12:09:49.602Z,26.8
2017-07-08T12:10:50.279Z,26.9
2017-07-08T12:11:50.996Z,27.5
2017-07-08T12:12:51.710Z,25.6
2017-07-08T12:13:52.420Z,27.6
2017-07-08T12:14:53.136Z,27.2
2017-07-08T12:15:53.845Z,25.9
2017-07-08T12:16:54.557Z,24.8
2017-07-08T12:17:55.271Z,26.9
2017-07-08T12:18:55.986Z,26.2
2017-07-08T12:19:56.700Z,27.1
2017-07-08T12:20:57.414Z,24.9
2017-07-08T12:21:58.087Z,25.9
2017-07-08T12:22:58.805Z,24.5
2017-07-08T12:23:59.518Z,23.0
2017-07-08T12:25:00.228Z,23.4
2017-07-08T12:26:00.908Z,24.2
2017-07-08T12:27:01.588Z,26.4
2017-07-08T12:28:02.305Z,23.2
2017-07-08T12:29:03.016Z,23.3
2017-07-08T12:30:03.701Z,22.9
2017-07-08T12:31:04.380Z,21.8
2017-07-08T12:32:05.089Z,21.1
2017-07-08T12:33:06.008Z,20.6
2017-07-08T12:34:06.720Z,20.6
2017-07-08T12:35:07.439Z,21.0
2017-07-08T12:36:08.157Z,17.8
2017-07-08T12:37:08.837Z,16.6
2017-07-08T12:38:09.516Z,18.0
2017-07-08T12:39:10.197Z,20.1
2017-07-08T12:40:10.880Z,23.0
2017-07-08T12:41:11.597Z,23.0
2017-07-08T12:42:12.306Z,23.9
2017-07-08T12:43:13.027Z,24.6
2017-07-08T12:44:13.738Z,24.0
2017-07-08T12:45:14.457Z,24.1
2017-07-08T12:46:15.170Z,26.0
2017-07-08T12:47:15.883Z,25.7
2017-07-08T12:48:16.593Z,25.9
2017-07-08T12:49:17.304Z,26.0
2017-07-08T12:50:18.018Z,25.1
2017-07-08T12:51:18.734Z,21.3
2017-07-08T12:52:19.451Z,19.0
2017-07-08T12:53:20.163Z,22.0
2017-07-08T12:54:20.871Z,20.9
2017-07-08T12:55:21.587Z,17.1
2017-07-08T12:56:22.265Z,13.6
2017-07-08T12:57:22.978Z,14.9
2017-07-08T12:58:23.694Z,16.1
2017-07-08T12:59:24.377Z,15.8
2017-07-08T13:00:25.086Z,15.2
2017-07-08T13:01:25.800Z,13.6
2017-07-08T13:02:26.520Z,12.3
2017-07-08T13:03:27.200Z,13.0
2017-07-08T13:04:27.920Z,12.7
2017-07-08T13:05:28.640Z,10.3
2017-07-08T13:06:29.358Z,14.0
2017-07-08T13:07:30.037Z,15.8
2017-07-08T13:08:30.750Z,17.9
2017-07-08T13:09:31.436Z,17.9
2017-07-08T13:10:32.155Z,12.9
2017-07-08T13:11:32.873Z,11.8
2017-07-08T13:12:33.591Z,14.7
2017-07-08T13:13:34.273Z,18.5
2017-07-08T13:14:34.957Z,20.3
2017-07-08T13:15:35.669Z,22.8
2017-07-08T13:16:36.391Z,21.8
2017-07-08T13:17:37.107Z,23.6
2017-07-08T13:18:37.793Z,24.8
2017-07-08T13:19:38.506Z,28.6
2017-07-08T13:20:39.220Z,27.7
2017-07-08T13:21:39.931Z,26.0
2017-07-08T13:22:40.644Z,26.6
2017-07-08T13:23:41.410Z,26.3
2017-07-08T13:24:42.100Z,27.2
2017-07-08T13:25:42.816Z,26.8
2017-07-08T13:26:43.541Z,25.4
2017-07-08T13:27:44.210Z,24.2